sensor_id;sensor_type;location;lat;lon;timestamp;P1;durP1;ratioP1;P2;durP2;ratioP2
75005;SDS011;63553;51.814;4.600;2023-04-15T00:01:54;2.67;;;2.13;;
75005;SDS011;63553;51.814;4.600;2023-04-15T00:04:19;2.72;;;2.00;;
75005;SDS011;63553;51.814;4.600;2023-04-15T00:06:51;4.90;;;2.20;;
75005;SDS011;63553;51.814;4.600;2023-04-15T00:09:17;3.45;;;2.03;;
75005;SDS011;63553;51.814;4.600;2023-04-15T00:11:43;3.17;;;2.20;;
75005;SDS011;63553;51.814;4.600;2023-04-15T00:14:09;2.95;;;2.00;;
75005;SDS011;63553;51.814;4.600;2023-04-15T00:16:35;2.92;;;1.98;;
75005;SDS011;63553;51.814;4.600;2023-04-15T00:19:01;2.10;;;1.90;;
75005;SDS011;63553;51.814;4.600;2023-04-15T00:21:26;2.50;;;2.17;;
75005;SDS011;63553;51.814;4.600;2023-04-15T00:23:53;3.67;;;2.63;;
75005;SDS011;63553;51.814;4.600;2023-04-15T00:26:18;4.68;;;2.25;;
75005;SDS011;63553;51.814;4.600;2023-04-15T00:28:44;2.83;;;2.30;;
75005;SDS011;63553;51.814;4.600;2023-04-15T00:31:10;3.40;;;2.00;;
75005;SDS011;63553;51.814;4.600;2023-04-15T00:33:36;4.28;;;2.25;;
75005;SDS011;63553;51.814;4.600;2023-04-15T00:36:01;3.87;;;1.93;;
75005;SDS011;63553;51.814;4.600;2023-04-15T00:38:27;2.22;;;2.00;;
75005;SDS011;63553;51.814;4.600;2023-04-15T00:40:53;3.45;;;2.25;;
75005;SDS011;63553;51.814;4.600;2023-04-15T00:43:19;2.85;;;2.35;;
75005;SDS011;63553;51.814;4.600;2023-04-15T00:45:44;3.13;;;2.50;;
75005;SDS011;63553;51.814;4.600;2023-04-15T00:48:11;3.95;;;2.00;;
75005;SDS011;63553;51.814;4.600;2023-04-15T00:50:36;3.72;;;2.22;;
75005;SDS011;63553;51.814;4.600;2023-04-15T00:53:02;3.53;;;2.30;;
75005;SDS011;63553;51.814;4.600;2023-04-15T00:55:27;3.80;;;2.40;;
75005;SDS011;63553;51.814;4.600;2023-04-15T00:57:53;2.60;;;2.40;;
75005;SDS011;63553;51.814;4.600;2023-04-15T01:00:19;2.30;;;2.10;;
75005;SDS011;63553;51.814;4.600;2023-04-15T01:02:44;2.45;;;2.20;;
75005;SDS011;63553;51.814;4.600;2023-04-15T01:05:10;3.00;;;2.53;;
75005;SDS011;63553;51.814;4.600;2023-04-15T01:07:35;2.78;;;2.03;;
75005;SDS011;63553;51.814;4.600;2023-04-15T01:10:02;4.85;;;2.35;;
75005;SDS011;63553;51.814;4.600;2023-04-15T01:12:28;2.72;;;2.10;;
75005;SDS011;63553;51.814;4.600;2023-04-15T01:14:54;3.85;;;2.50;;
75005;SDS011;63553;51.814;4.600;2023-04-15T01:17:20;2.88;;;2.00;;
75005;SDS011;63553;51.814;4.600;2023-04-15T01:19:46;2.88;;;2.00;;
75005;SDS011;63553;51.814;4.600;2023-04-15T01:22:11;3.72;;;2.30;;
75005;SDS011;63553;51.814;4.600;2023-04-15T01:24:36;3.37;;;2.33;;
75005;SDS011;63553;51.814;4.600;2023-04-15T01:27:03;2.90;;;2.55;;
75005;SDS011;63553;51.814;4.600;2023-04-15T01:29:29;2.85;;;2.33;;
75005;SDS011;63553;51.814;4.600;2023-04-15T01:31:56;5.53;;;2.60;;
75005;SDS011;63553;51.814;4.600;2023-04-15T01:34:21;4.63;;;2.30;;
75005;SDS011;63553;51.814;4.600;2023-04-15T01:36:47;2.95;;;2.55;;
75005;SDS011;63553;51.814;4.600;2023-04-15T01:39:13;4.35;;;2.42;;
75005;SDS011;63553;51.814;4.600;2023-04-15T01:41:38;2.92;;;2.10;;
75005;SDS011;63553;51.814;4.600;2023-04-15T01:44:04;5.28;;;2.70;;
75005;SDS011;63553;51.814;4.600;2023-04-15T01:46:31;4.55;;;2.95;;
75005;SDS011;63553;51.814;4.600;2023-04-15T01:48:56;4.30;;;2.15;;
75005;SDS011;63553;51.814;4.600;2023-04-15T01:51:21;4.60;;;2.30;;
75005;SDS011;63553;51.814;4.600;2023-04-15T01:53:47;3.60;;;2.50;;
75005;SDS011;63553;51.814;4.600;2023-04-15T01:56:12;4.05;;;2.35;;
75005;SDS011;63553;51.814;4.600;2023-04-15T01:58:38;3.55;;;2.35;;
75005;SDS011;63553;51.814;4.600;2023-04-15T02:01:04;2.67;;;2.42;;
75005;SDS011;63553;51.814;4.600;2023-04-15T02:03:30;2.63;;;2.20;;
75005;SDS011;63553;51.814;4.600;2023-04-15T02:05:55;3.25;;;2.60;;
75005;SDS011;63553;51.814;4.600;2023-04-15T02:08:20;2.72;;;2.30;;
75005;SDS011;63553;51.814;4.600;2023-04-15T02:10:46;2.55;;;2.30;;
75005;SDS011;63553;51.814;4.600;2023-04-15T02:13:12;5.10;;;2.50;;
75005;SDS011;63553;51.814;4.600;2023-04-15T02:15:37;6.40;;;2.50;;
75005;SDS011;63553;51.814;4.600;2023-04-15T02:18:03;2.50;;;2.30;;
75005;SDS011;63553;51.814;4.600;2023-04-15T02:20:28;3.50;;;2.53;;
75005;SDS011;63553;51.814;4.600;2023-04-15T02:22:57;5.35;;;2.90;;
75005;SDS011;63553;51.814;4.600;2023-04-15T02:25:22;6.50;;;2.45;;
75005;SDS011;63553;51.814;4.600;2023-04-15T02:27:47;4.35;;;2.78;;
75005;SDS011;63553;51.814;4.600;2023-04-15T02:30:13;4.47;;;2.50;;
75005;SDS011;63553;51.814;4.600;2023-04-15T02:32:39;3.00;;;2.60;;
75005;SDS011;63553;51.814;4.600;2023-04-15T02:35:05;3.80;;;2.47;;
75005;SDS011;63553;51.814;4.600;2023-04-15T02:37:31;3.13;;;2.53;;
75005;SDS011;63553;51.814;4.600;2023-04-15T02:40:01;3.42;;;2.72;;
75005;SDS011;63553;51.814;4.600;2023-04-15T02:42:26;3.05;;;2.75;;
75005;SDS011;63553;51.814;4.600;2023-04-15T02:44:54;3.30;;;2.58;;
75005;SDS011;63553;51.814;4.600;2023-04-15T02:47:20;2.97;;;2.47;;
75005;SDS011;63553;51.814;4.600;2023-04-15T02:49:45;5.63;;;2.90;;
75005;SDS011;63553;51.814;4.600;2023-04-15T02:52:10;2.73;;;2.47;;
75005;SDS011;63553;51.814;4.600;2023-04-15T02:54:36;2.70;;;2.50;;
75005;SDS011;63553;51.814;4.600;2023-04-15T02:57:01;4.57;;;2.70;;
75005;SDS011;63553;51.814;4.600;2023-04-15T02:59:26;3.00;;;2.70;;
75005;SDS011;63553;51.814;4.600;2023-04-15T03:01:52;6.05;;;2.83;;
75005;SDS011;63553;51.814;4.600;2023-04-15T03:04:17;5.22;;;2.85;;
75005;SDS011;63553;51.814;4.600;2023-04-15T03:06:42;2.60;;;2.37;;
75005;SDS011;63553;51.814;4.600;2023-04-15T03:09:08;3.13;;;2.73;;
75005;SDS011;63553;51.814;4.600;2023-04-15T03:11:34;2.53;;;2.30;;
75005;SDS011;63553;51.814;4.600;2023-04-15T03:14:04;3.75;;;2.65;;
75005;SDS011;63553;51.814;4.600;2023-04-15T03:16:29;3.27;;;2.73;;
75005;SDS011;63553;51.814;4.600;2023-04-15T03:18:55;4.38;;;2.72;;
75005;SDS011;63553;51.814;4.600;2023-04-15T03:21:20;2.63;;;2.43;;
75005;SDS011;63553;51.814;4.600;2023-04-15T03:23:47;4.17;;;2.80;;
75005;SDS011;63553;51.814;4.600;2023-04-15T03:26:22;3.47;;;2.65;;
75005;SDS011;63553;51.814;4.600;2023-04-15T03:28:51;3.03;;;2.67;;
75005;SDS011;63553;51.814;4.600;2023-04-15T03:31:17;3.03;;;2.73;;
75005;SDS011;63553;51.814;4.600;2023-04-15T03:33:42;2.93;;;2.63;;
75005;SDS011;63553;51.814;4.600;2023-04-15T03:36:07;2.85;;;2.60;;
75005;SDS011;63553;51.814;4.600;2023-04-15T03:38:33;3.93;;;2.80;;
75005;SDS011;63553;51.814;4.600;2023-04-15T03:40:58;4.67;;;3.00;;
75005;SDS011;63553;51.814;4.600;2023-04-15T03:43:23;2.83;;;2.50;;
75005;SDS011;63553;51.814;4.600;2023-04-15T03:45:49;3.42;;;2.53;;
75005;SDS011;63553;51.814;4.600;2023-04-15T03:48:14;3.05;;;2.72;;
75005;SDS011;63553;51.814;4.600;2023-04-15T03:50:40;2.50;;;2.35;;
75005;SDS011;63553;51.814;4.600;2023-04-15T03:53:05;2.80;;;2.40;;
75005;SDS011;63553;51.814;4.600;2023-04-15T03:55:30;2.90;;;2.17;;
75005;SDS011;63553;51.814;4.600;2023-04-15T03:57:56;2.50;;;2.30;;
75005;SDS011;63553;51.814;4.600;2023-04-15T04:00:21;2.60;;;2.40;;
75005;SDS011;63553;51.814;4.600;2023-04-15T04:02:46;3.53;;;2.30;;
75005;SDS011;63553;51.814;4.600;2023-04-15T04:05:12;2.60;;;2.40;;
75005;SDS011;63553;51.814;4.600;2023-04-15T04:07:37;4.27;;;2.27;;
75005;SDS011;63553;51.814;4.600;2023-04-15T04:10:02;2.50;;;2.30;;
75005;SDS011;63553;51.814;4.600;2023-04-15T04:12:28;3.10;;;2.30;;
75005;SDS011;63553;51.814;4.600;2023-04-15T04:14:53;2.90;;;2.07;;
75005;SDS011;63553;51.814;4.600;2023-04-15T04:17:18;5.33;;;2.50;;
75005;SDS011;63553;51.814;4.600;2023-04-15T04:19:44;3.85;;;2.50;;
75005;SDS011;63553;51.814;4.600;2023-04-15T04:22:09;2.60;;;2.13;;
75005;SDS011;63553;51.814;4.600;2023-04-15T04:24:34;2.33;;;2.13;;
75005;SDS011;63553;51.814;4.600;2023-04-15T04:27:00;5.27;;;1.90;;
75005;SDS011;63553;51.814;4.600;2023-04-15T04:29:25;3.57;;;2.03;;
75005;SDS011;63553;51.814;4.600;2023-04-15T04:31:50;2.63;;;2.28;;
75005;SDS011;63553;51.814;4.600;2023-04-15T04:34:16;3.35;;;2.30;;
75005;SDS011;63553;51.814;4.600;2023-04-15T04:36:41;2.30;;;2.10;;
75005;SDS011;63553;51.814;4.600;2023-04-15T04:39:07;3.63;;;2.40;;
75005;SDS011;63553;51.814;4.600;2023-04-15T04:41:32;2.30;;;2.10;;
75005;SDS011;63553;51.814;4.600;2023-04-15T04:43:57;5.03;;;2.30;;
75005;SDS011;63553;51.814;4.600;2023-04-15T04:46:23;2.38;;;2.22;;
75005;SDS011;63553;51.814;4.600;2023-04-15T04:48:48;2.47;;;2.20;;
75005;SDS011;63553;51.814;4.600;2023-04-15T04:51:13;4.25;;;2.05;;
75005;SDS011;63553;51.814;4.600;2023-04-15T04:53:39;2.47;;;2.22;;
75005;SDS011;63553;51.814;4.600;2023-04-15T04:56:05;2.30;;;2.10;;
75005;SDS011;63553;51.814;4.600;2023-04-15T04:58:30;2.78;;;2.17;;
75005;SDS011;63553;51.814;4.600;2023-04-15T05:00:56;2.30;;;2.10;;
75005;SDS011;63553;51.814;4.600;2023-04-15T05:03:22;2.58;;;2.35;;
75005;SDS011;63553;51.814;4.600;2023-04-15T05:05:47;2.50;;;2.30;;
75005;SDS011;63553;51.814;4.600;2023-04-15T05:08:13;2.63;;;1.92;;
75005;SDS011;63553;51.814;4.600;2023-04-15T05:10:39;2.53;;;2.28;;
75005;SDS011;63553;51.814;4.600;2023-04-15T05:13:04;3.55;;;2.22;;
75005;SDS011;63553;51.814;4.600;2023-04-15T05:15:30;2.93;;;2.10;;
75005;SDS011;63553;51.814;4.600;2023-04-15T05:17:55;4.95;;;2.10;;
75005;SDS011;63553;51.814;4.600;2023-04-15T05:20:21;2.30;;;1.90;;
75005;SDS011;63553;51.814;4.600;2023-04-15T05:22:46;3.63;;;2.05;;
75005;SDS011;63553;51.814;4.600;2023-04-15T05:25:11;2.17;;;1.90;;
75005;SDS011;63553;51.814;4.600;2023-04-15T05:27:37;2.35;;;2.15;;
75005;SDS011;63553;51.814;4.600;2023-04-15T05:30:03;2.30;;;2.10;;
75005;SDS011;63553;51.814;4.600;2023-04-15T05:32:28;3.85;;;2.15;;
75005;SDS011;63553;51.814;4.600;2023-04-15T05:34:54;2.60;;;2.33;;
75005;SDS011;63553;51.814;4.600;2023-04-15T05:37:19;3.60;;;2.17;;
75005;SDS011;63553;51.814;4.600;2023-04-15T05:39:46;3.70;;;2.60;;
75005;SDS011;63553;51.814;4.600;2023-04-15T05:42:12;2.53;;;2.33;;
75005;SDS011;63553;51.814;4.600;2023-04-15T05:44:37;3.75;;;2.40;;
75005;SDS011;63553;51.814;4.600;2023-04-15T05:47:03;2.80;;;2.30;;
75005;SDS011;63553;51.814;4.600;2023-04-15T05:49:28;2.42;;;2.20;;
75005;SDS011;63553;51.814;4.600;2023-04-15T05:51:54;3.08;;;2.25;;
75005;SDS011;63553;51.814;4.600;2023-04-15T05:54:20;2.58;;;2.38;;
75005;SDS011;63553;51.814;4.600;2023-04-15T05:56:47;2.85;;;2.65;;
75005;SDS011;63553;51.814;4.600;2023-04-15T05:59:12;2.60;;;2.40;;
75005;SDS011;63553;51.814;4.600;2023-04-15T06:01:37;3.97;;;2.40;;
75005;SDS011;63553;51.814;4.600;2023-04-15T06:04:04;2.38;;;2.17;;
75005;SDS011;63553;51.814;4.600;2023-04-15T06:06:29;2.55;;;2.25;;
75005;SDS011;63553;51.814;4.600;2023-04-15T06:08:56;2.40;;;2.20;;
75005;SDS011;63553;51.814;4.600;2023-04-15T06:11:22;2.13;;;2.03;;
75005;SDS011;63553;51.814;4.600;2023-04-15T06:13:47;2.67;;;1.70;;
75005;SDS011;63553;51.814;4.600;2023-04-15T06:16:13;2.00;;;1.90;;
75005;SDS011;63553;51.814;4.600;2023-04-15T06:18:38;2.00;;;1.80;;
75005;SDS011;63553;51.814;4.600;2023-04-15T06:21:03;3.88;;;2.50;;
75005;SDS011;63553;51.814;4.600;2023-04-15T06:23:29;2.75;;;2.08;;
75005;SDS011;63553;51.814;4.600;2023-04-15T06:25:55;2.55;;;2.35;;
75005;SDS011;63553;51.814;4.600;2023-04-15T06:28:20;3.50;;;1.97;;
75005;SDS011;63553;51.814;4.600;2023-04-15T06:30:46;2.63;;;2.43;;
75005;SDS011;63553;51.814;4.600;2023-04-15T06:33:11;2.15;;;2.05;;
75005;SDS011;63553;51.814;4.600;2023-04-15T06:35:37;3.67;;;2.60;;
75005;SDS011;63553;51.814;4.600;2023-04-15T06:38:03;2.88;;;2.53;;
75005;SDS011;63553;51.814;4.600;2023-04-15T06:40:28;3.08;;;2.53;;
75005;SDS011;63553;51.814;4.600;2023-04-15T06:42:54;4.85;;;4.45;;
75005;SDS011;63553;51.814;4.600;2023-04-15T06:45:19;6.50;;;4.90;;
75005;SDS011;63553;51.814;4.600;2023-04-15T06:47:45;6.90;;;4.80;;
75005;SDS011;63553;51.814;4.600;2023-04-15T06:50:10;6.68;;;4.70;;
75005;SDS011;63553;51.814;4.600;2023-04-15T06:52:36;22.95;;;7.40;;
75005;SDS011;63553;51.814;4.600;2023-04-15T06:55:01;7.15;;;4.80;;
75005;SDS011;63553;51.814;4.600;2023-04-15T06:57:27;5.95;;;4.35;;
75005;SDS011;63553;51.814;4.600;2023-04-15T06:59:53;5.27;;;4.00;;
75005;SDS011;63553;51.814;4.600;2023-04-15T07:02:18;5.65;;;5.00;;
75005;SDS011;63553;51.814;4.600;2023-04-15T07:04:44;5.15;;;4.10;;
75005;SDS011;63553;51.814;4.600;2023-04-15T07:07:09;4.77;;;4.27;;
75005;SDS011;63553;51.814;4.600;2023-04-15T07:09:35;4.80;;;4.07;;
75005;SDS011;63553;51.814;4.600;2023-04-15T07:12:00;7.20;;;4.57;;
75005;SDS011;63553;51.814;4.600;2023-04-15T07:14:25;4.70;;;4.07;;
75005;SDS011;63553;51.814;4.600;2023-04-15T07:16:51;6.05;;;4.18;;
75005;SDS011;63553;51.814;4.600;2023-04-15T07:19:17;4.53;;;4.10;;
75005;SDS011;63553;51.814;4.600;2023-04-15T07:21:42;3.90;;;3.17;;
75005;SDS011;63553;51.814;4.600;2023-04-15T07:24:07;9.63;;;4.13;;
75005;SDS011;63553;51.814;4.600;2023-04-15T07:26:34;4.82;;;3.95;;
75005;SDS011;63553;51.814;4.600;2023-04-15T07:28:59;5.32;;;4.13;;
75005;SDS011;63553;51.814;4.600;2023-04-15T07:31:25;6.35;;;4.18;;
75005;SDS011;63553;51.814;4.600;2023-04-15T07:33:51;5.22;;;4.22;;
75005;SDS011;63553;51.814;4.600;2023-04-15T07:36:17;6.05;;;4.70;;
75005;SDS011;63553;51.814;4.600;2023-04-15T07:38:42;5.70;;;4.45;;
75005;SDS011;63553;51.814;4.600;2023-04-15T07:41:08;6.07;;;4.38;;
75005;SDS011;63553;51.814;4.600;2023-04-15T07:43:34;6.05;;;4.50;;
75005;SDS011;63553;51.814;4.600;2023-04-15T07:45:59;4.72;;;4.25;;
75005;SDS011;63553;51.814;4.600;2023-04-15T07:48:25;5.57;;;3.97;;
75005;SDS011;63553;51.814;4.600;2023-04-15T07:50:51;5.63;;;4.35;;
75005;SDS011;63553;51.814;4.600;2023-04-15T07:53:16;5.50;;;4.53;;
75005;SDS011;63553;51.814;4.600;2023-04-15T07:55:42;5.40;;;4.47;;
75005;SDS011;63553;51.814;4.600;2023-04-15T07:58:07;4.33;;;3.93;;
75005;SDS011;63553;51.814;4.600;2023-04-15T08:00:32;6.50;;;4.57;;
75005;SDS011;63553;51.814;4.600;2023-04-15T08:02:58;6.40;;;4.60;;
75005;SDS011;63553;51.814;4.600;2023-04-15T08:05:23;4.88;;;3.92;;
75005;SDS011;63553;51.814;4.600;2023-04-15T08:07:49;4.82;;;4.05;;
75005;SDS011;63553;51.814;4.600;2023-04-15T08:10:15;4.57;;;4.10;;
75005;SDS011;63553;51.814;4.600;2023-04-15T08:12:41;4.72;;;4.32;;
75005;SDS011;63553;51.814;4.600;2023-04-15T08:15:06;5.70;;;4.25;;
75005;SDS011;63553;51.814;4.600;2023-04-15T08:17:33;4.47;;;4.07;;
75005;SDS011;63553;51.814;4.600;2023-04-15T08:19:58;4.53;;;4.10;;
75005;SDS011;63553;51.814;4.600;2023-04-15T08:22:23;6.67;;;4.50;;
75005;SDS011;63553;51.814;4.600;2023-04-15T08:24:49;4.93;;;3.90;;
75005;SDS011;63553;51.814;4.600;2023-04-15T08:27:15;4.40;;;4.00;;
75005;SDS011;63553;51.814;4.600;2023-04-15T08:29:40;4.50;;;4.07;;
75005;SDS011;63553;51.814;4.600;2023-04-15T08:32:06;4.27;;;3.67;;
75005;SDS011;63553;51.814;4.600;2023-04-15T08:34:31;4.50;;;3.90;;
75005;SDS011;63553;51.814;4.600;2023-04-15T08:36:57;4.43;;;3.80;;
75005;SDS011;63553;51.814;4.600;2023-04-15T08:39:22;4.90;;;4.37;;
75005;SDS011;63553;51.814;4.600;2023-04-15T08:41:51;3.77;;;3.40;;
75005;SDS011;63553;51.814;4.600;2023-04-15T08:44:24;4.65;;;3.65;;
75005;SDS011;63553;51.814;4.600;2023-04-15T08:46:53;5.22;;;4.07;;
75005;SDS011;63553;51.814;4.600;2023-04-15T08:49:21;7.53;;;4.43;;
75005;SDS011;63553;51.814;4.600;2023-04-15T08:54:16;6.20;;;4.78;;
75005;SDS011;63553;51.814;4.600;2023-04-15T08:56:42;5.22;;;4.72;;
75005;SDS011;63553;51.814;4.600;2023-04-15T08:59:08;6.75;;;3.75;;
75005;SDS011;63553;51.814;4.600;2023-04-15T09:01:35;9.32;;;4.15;;
75005;SDS011;63553;51.814;4.600;2023-04-15T09:04:02;4.85;;;4.07;;
75005;SDS011;63553;51.814;4.600;2023-04-15T09:06:30;5.90;;;4.40;;
75005;SDS011;63553;51.814;4.600;2023-04-15T09:08:55;7.05;;;4.85;;
75005;SDS011;63553;51.814;4.600;2023-04-15T09:11:21;5.03;;;4.53;;
75005;SDS011;63553;51.814;4.600;2023-04-15T09:13:47;6.15;;;4.18;;
75005;SDS011;63553;51.814;4.600;2023-04-15T09:16:13;3.92;;;3.58;;
75005;SDS011;63553;51.814;4.600;2023-04-15T09:18:39;6.10;;;4.60;;
75005;SDS011;63553;51.814;4.600;2023-04-15T09:23:32;6.43;;;3.40;;
75005;SDS011;63553;51.814;4.600;2023-04-15T09:25:58;4.65;;;4.07;;
75005;SDS011;63553;51.814;4.600;2023-04-15T09:28:24;4.80;;;3.90;;
75005;SDS011;63553;51.814;4.600;2023-04-15T09:30:56;4.65;;;3.42;;
75005;SDS011;63553;51.814;4.600;2023-04-15T09:33:25;5.85;;;4.05;;
75005;SDS011;63553;51.814;4.600;2023-04-15T09:35:59;4.82;;;3.80;;
75005;SDS011;63553;51.814;4.600;2023-04-15T09:38:29;3.85;;;3.45;;
75005;SDS011;63553;51.814;4.600;2023-04-15T09:40:56;4.80;;;3.80;;
75005;SDS011;63553;51.814;4.600;2023-04-15T09:43:22;3.92;;;3.35;;
75005;SDS011;63553;51.814;4.600;2023-04-15T09:45:50;3.85;;;3.05;;
75005;SDS011;63553;51.814;4.600;2023-04-15T09:48:21;3.45;;;2.85;;
75005;SDS011;63553;51.814;4.600;2023-04-15T09:50:48;2.97;;;2.60;;
75005;SDS011;63553;51.814;4.600;2023-04-15T09:53:17;2.70;;;2.50;;
75005;SDS011;63553;51.814;4.600;2023-04-15T09:55:44;4.15;;;2.30;;
75005;SDS011;63553;51.814;4.600;2023-04-15T09:58:17;3.28;;;2.80;;
75005;SDS011;63553;51.814;4.600;2023-04-15T10:00:47;4.63;;;3.00;;
75005;SDS011;63553;51.814;4.600;2023-04-15T10:03:24;3.83;;;3.15;;
75005;SDS011;63553;51.814;4.600;2023-04-15T10:05:54;4.70;;;2.08;;
75005;SDS011;63553;51.814;4.600;2023-04-15T10:08:22;3.50;;;2.80;;
75005;SDS011;63553;51.814;4.600;2023-04-15T10:10:49;3.30;;;3.00;;
75005;SDS011;63553;51.814;4.600;2023-04-15T10:13:18;4.22;;;2.35;;
75005;SDS011;63553;51.814;4.600;2023-04-15T10:15:58;2.10;;;1.95;;
75005;SDS011;63553;51.814;4.600;2023-04-15T10:18:26;2.88;;;2.05;;
75005;SDS011;63553;51.814;4.600;2023-04-15T10:20:52;2.50;;;1.98;;
75005;SDS011;63553;51.814;4.600;2023-04-15T10:23:19;4.03;;;1.67;;
75005;SDS011;63553;51.814;4.600;2023-04-15T10:25:47;6.50;;;1.77;;
75005;SDS011;63553;51.814;4.600;2023-04-15T10:28:13;8.15;;;2.17;;
75005;SDS011;63553;51.814;4.600;2023-04-15T10:30:40;13.35;;;2.20;;
75005;SDS011;63553;51.814;4.600;2023-04-15T10:33:06;3.00;;;1.50;;
75005;SDS011;63553;51.814;4.600;2023-04-15T10:35:33;3.22;;;1.40;;
75005;SDS011;63553;51.814;4.600;2023-04-15T10:37:59;2.72;;;1.23;;
75005;SDS011;63553;51.814;4.600;2023-04-15T10:40:29;5.00;;;1.47;;
75005;SDS011;63553;51.814;4.600;2023-04-15T10:42:59;5.00;;;1.63;;
75005;SDS011;63553;51.814;4.600;2023-04-15T10:45:26;4.28;;;1.70;;
75005;SDS011;63553;51.814;4.600;2023-04-15T10:47:56;2.97;;;1.40;;
75005;SDS011;63553;51.814;4.600;2023-04-15T10:50:25;1.67;;;1.23;;
75005;SDS011;63553;51.814;4.600;2023-04-15T10:52:52;5.30;;;1.40;;
75005;SDS011;63553;51.814;4.600;2023-04-15T10:55:19;1.77;;;1.38;;
75005;SDS011;63553;51.814;4.600;2023-04-15T10:57:46;1.75;;;1.60;;
75005;SDS011;63553;51.814;4.600;2023-04-15T11:02:47;1.65;;;1.40;;
75005;SDS011;63553;51.814;4.600;2023-04-15T11:05:48;10.05;;;1.73;;
75005;SDS011;63553;51.814;4.600;2023-04-15T11:08:17;1.75;;;1.00;;
75005;SDS011;63553;51.814;4.600;2023-04-15T11:18:15;1.50;;;1.13;;
75005;SDS011;63553;51.814;4.600;2023-04-15T11:20:45;1.20;;;1.10;;
75005;SDS011;63553;51.814;4.600;2023-04-15T11:23:18;2.35;;;1.10;;
75005;SDS011;63553;51.814;4.600;2023-04-15T11:25:51;1.20;;;1.10;;
75005;SDS011;63553;51.814;4.600;2023-04-15T11:28:19;1.77;;;1.17;;
75005;SDS011;63553;51.814;4.600;2023-04-15T11:30:44;1.53;;;1.10;;
75005;SDS011;63553;51.814;4.600;2023-04-15T11:33:10;2.03;;;1.20;;
75005;SDS011;63553;51.814;4.600;2023-04-15T11:35:36;2.00;;;1.00;;
75005;SDS011;63553;51.814;4.600;2023-04-15T11:38:07;1.27;;;1.00;;
75005;SDS011;63553;51.814;4.600;2023-04-15T11:40:33;0.80;;;0.80;;
75005;SDS011;63553;51.814;4.600;2023-04-15T11:43:05;0.80;;;0.80;;
75005;SDS011;63553;51.814;4.600;2023-04-15T11:48:16;1.17;;;1.10;;
75005;SDS011;63553;51.814;4.600;2023-04-15T11:50:42;1.30;;;1.20;;
75005;SDS011;63553;51.814;4.600;2023-04-15T11:53:09;1.52;;;1.10;;
75005;SDS011;63553;51.814;4.600;2023-04-15T11:55:40;1.55;;;1.23;;
75005;SDS011;63553;51.814;4.600;2023-04-15T11:58:15;1.50;;;1.40;;
75005;SDS011;63553;51.814;4.600;2023-04-15T12:00:49;1.30;;;1.20;;
75005;SDS011;63553;51.814;4.600;2023-04-15T12:03:28;2.13;;;1.30;;
75005;SDS011;63553;51.814;4.600;2023-04-15T12:11:45;5.40;;;1.70;;
75005;SDS011;63553;51.814;4.600;2023-04-15T12:16:46;2.25;;;1.92;;
75005;SDS011;63553;51.814;4.600;2023-04-15T12:19:25;1.90;;;1.70;;
75005;SDS011;63553;51.814;4.600;2023-04-15T12:21:52;5.40;;;1.50;;
75005;SDS011;63553;51.814;4.600;2023-04-15T12:24:22;1.38;;;1.35;;
75005;SDS011;63553;51.814;4.600;2023-04-15T12:26:51;5.55;;;1.77;;
75005;SDS011;63553;51.814;4.600;2023-04-15T12:29:25;4.70;;;1.80;;
75005;SDS011;63553;51.814;4.600;2023-04-15T12:31:53;5.88;;;1.40;;
75005;SDS011;63553;51.814;4.600;2023-04-15T12:34:27;1.83;;;1.20;;
75005;SDS011;63553;51.814;4.600;2023-04-15T12:36:56;3.75;;;1.30;;
75005;SDS011;63553;51.814;4.600;2023-04-15T12:39:23;2.63;;;1.20;;
75005;SDS011;63553;51.814;4.600;2023-04-15T12:41:50;2.92;;;1.40;;
75005;SDS011;63553;51.814;4.600;2023-04-15T12:44:16;1.67;;;1.30;;
75005;SDS011;63553;51.814;4.600;2023-04-15T12:46:41;2.38;;;1.40;;
75005;SDS011;63553;51.814;4.600;2023-04-15T12:49:07;2.80;;;1.60;;
75005;SDS011;63553;51.814;4.600;2023-04-15T12:51:33;1.75;;;1.55;;
75005;SDS011;63553;51.814;4.600;2023-04-15T12:53:59;1.65;;;1.23;;
75005;SDS011;63553;51.814;4.600;2023-04-15T12:56:24;1.47;;;1.40;;
75005;SDS011;63553;51.814;4.600;2023-04-15T12:58:49;2.95;;;1.55;;
75005;SDS011;63553;51.814;4.600;2023-04-15T13:01:15;1.58;;;1.40;;
75005;SDS011;63553;51.814;4.600;2023-04-15T13:03:41;2.72;;;1.58;;
75005;SDS011;63553;51.814;4.600;2023-04-15T13:06:06;2.20;;;1.20;;
75005;SDS011;63553;51.814;4.600;2023-04-15T13:08:32;2.10;;;1.20;;
75005;SDS011;63553;51.814;4.600;2023-04-15T13:10:57;3.95;;;1.40;;
75005;SDS011;63553;51.814;4.600;2023-04-15T13:13:23;2.38;;;1.40;;
75005;SDS011;63553;51.814;4.600;2023-04-15T13:15:48;1.65;;;1.30;;
75005;SDS011;63553;51.814;4.600;2023-04-15T13:18:13;1.30;;;1.20;;
75005;SDS011;63553;51.814;4.600;2023-04-15T13:20:39;1.67;;;1.40;;
75005;SDS011;63553;51.814;4.600;2023-04-15T13:23:05;1.60;;;1.15;;
75005;SDS011;63553;51.814;4.600;2023-04-15T13:25:30;2.20;;;1.65;;
75005;SDS011;63553;51.814;4.600;2023-04-15T13:27:56;1.27;;;1.20;;
75005;SDS011;63553;51.814;4.600;2023-04-15T13:30:21;1.23;;;1.05;;
75005;SDS011;63553;51.814;4.600;2023-04-15T13:32:47;2.08;;;1.20;;
75005;SDS011;63553;51.814;4.600;2023-04-15T13:35:13;3.70;;;1.20;;
75005;SDS011;63553;51.814;4.600;2023-04-15T13:37:38;1.50;;;1.30;;
75005;SDS011;63553;51.814;4.600;2023-04-15T13:40:05;1.13;;;1.10;;
75005;SDS011;63553;51.814;4.600;2023-04-15T13:42:31;1.85;;;1.25;;
75005;SDS011;63553;51.814;4.600;2023-04-15T13:44:57;1.45;;;1.00;;
75005;SDS011;63553;51.814;4.600;2023-04-15T13:47:22;1.20;;;1.00;;
75005;SDS011;63553;51.814;4.600;2023-04-15T13:49:47;3.03;;;1.55;;
75005;SDS011;63553;51.814;4.600;2023-04-15T13:52:13;3.23;;;1.40;;
75005;SDS011;63553;51.814;4.600;2023-04-15T13:54:38;2.47;;;1.75;;
75005;SDS011;63553;51.814;4.600;2023-04-15T13:57:04;5.50;;;1.53;;
75005;SDS011;63553;51.814;4.600;2023-04-15T13:59:30;1.35;;;1.20;;
75005;SDS011;63553;51.814;4.600;2023-04-15T14:01:56;2.65;;;1.17;;
75005;SDS011;63553;51.814;4.600;2023-04-15T14:04:22;1.67;;;1.27;;
75005;SDS011;63553;51.814;4.600;2023-04-15T14:06:47;3.15;;;1.35;;
75005;SDS011;63553;51.814;4.600;2023-04-15T14:09:13;1.95;;;1.27;;
75005;SDS011;63553;51.814;4.600;2023-04-15T14:11:39;1.30;;;1.20;;
75005;SDS011;63553;51.814;4.600;2023-04-15T14:14:04;3.72;;;1.75;;
75005;SDS011;63553;51.814;4.600;2023-04-15T14:16:33;0.90;;;0.80;;
75005;SDS011;63553;51.814;4.600;2023-04-15T14:18:58;2.20;;;1.00;;
75005;SDS011;63553;51.814;4.600;2023-04-15T14:21:24;2.42;;;1.20;;
75005;SDS011;63553;51.814;4.600;2023-04-15T14:23:51;2.03;;;1.20;;
75005;SDS011;63553;51.814;4.600;2023-04-15T14:26:17;1.02;;;0.90;;
75005;SDS011;63553;51.814;4.600;2023-04-15T14:28:43;1.50;;;1.20;;
75005;SDS011;63553;51.814;4.600;2023-04-15T14:31:09;1.48;;;0.98;;
75005;SDS011;63553;51.814;4.600;2023-04-15T14:33:34;2.15;;;1.00;;
75005;SDS011;63553;51.814;4.600;2023-04-15T14:36:00;2.33;;;1.17;;
75005;SDS011;63553;51.814;4.600;2023-04-15T14:38:25;1.50;;;1.40;;
75005;SDS011;63553;51.814;4.600;2023-04-15T14:40:51;1.20;;;1.10;;
75005;SDS011;63553;51.814;4.600;2023-04-15T14:43:16;1.13;;;1.07;;
75005;SDS011;63553;51.814;4.600;2023-04-15T14:45:42;3.43;;;0.93;;
75005;SDS011;63553;51.814;4.600;2023-04-15T14:48:08;1.45;;;1.10;;
75005;SDS011;63553;51.814;4.600;2023-04-15T14:50:34;1.30;;;1.20;;
75005;SDS011;63553;51.814;4.600;2023-04-15T14:52:59;1.02;;;0.93;;
75005;SDS011;63553;51.814;4.600;2023-04-15T14:55:25;1.35;;;0.82;;
75005;SDS011;63553;51.814;4.600;2023-04-15T14:57:50;0.90;;;0.90;;
75005;SDS011;63553;51.814;4.600;2023-04-15T15:00:15;1.33;;;0.80;;
75005;SDS011;63553;51.814;4.600;2023-04-15T15:02:41;2.08;;;1.00;;
75005;SDS011;63553;51.814;4.600;2023-04-15T15:05:07;1.10;;;1.00;;
75005;SDS011;63553;51.814;4.600;2023-04-15T15:07:34;1.67;;;0.80;;
75005;SDS011;63553;51.814;4.600;2023-04-15T15:10:00;1.33;;;0.80;;